aviador You're here:

CYKF Decoded Metar

WATERLOO in ON, CANADA
Report Time2018-01-16 21:00:00
UTC Time2018-01-16 21:21:40
Flight Rules vfr VFR
Wind190° at 07 kt
W.Decomp.*RWY 14: 3.5 kt HW 6.1 kt RCW
RWY 26: 3.5 kt HW 6.1 kt LCW
W.Rank190° ranks 14
Current wind is below 190° avg. (8.0)
Visibility9999 m
Phenomena:Light Snow
Clouds:Broken 030 Hf
Broken 041 Hf
Expected CloudBase > 1,200 ft AGL from Temp-Dew spread
Ceiling3,000 ft
Temp-7°C (ISA -20)
Dew Point-10°C (79% RH)
AAT-12.6°C
QNH1026 hPa
Density Alt-1,831 ft
Elevation1,040 ft
Report Wrong Elevation
Raw Report
CYKF 162100Z AUTO 19007KT 8SM -SN BKN030 BKN041 M07/M10 A3030 RMK
SLP283=

Extra information for CYKF:More info

Metar Taf Metar & Taf Last 4 Metars F.Rules Stats Wind Profile Meteogram Temp Stats Airport Information Weather charts Add Link Nearby VenuesMetar ALERT Operation Metar Decoded Social comments